sensor_id;sensor_type;location;lat;lon;timestamp;P1;durP1;ratioP1;P2;durP2;ratioP2
66521;SDS011;53349;53.538;8.584;2022-09-09T00:03:57;19.88;;;9.98;;
66521;SDS011;53349;53.538;8.584;2022-09-09T00:06:29;21.08;;;10.43;;
66521;SDS011;53349;53.538;8.584;2022-09-09T00:09:00;18.52;;;10.35;;
66521;SDS011;53349;53.538;8.584;2022-09-09T00:14:23;21.70;;;11.40;;
66521;SDS011;53349;53.538;8.584;2022-09-09T00:17:01;24.60;;;11.52;;
66521;SDS011;53349;53.538;8.584;2022-09-09T00:19:33;22.92;;;11.68;;
66521;SDS011;53349;53.538;8.584;2022-09-09T00:22:13;20.35;;;10.73;;
66521;SDS011;53349;53.538;8.584;2022-09-09T00:27:34;22.30;;;10.60;;
66521;SDS011;53349;53.538;8.584;2022-09-09T00:32:48;21.95;;;10.95;;
66521;SDS011;53349;53.538;8.584;2022-09-09T00:35:22;25.23;;;11.77;;
66521;SDS011;53349;53.538;8.584;2022-09-09T00:38:13;20.60;;;11.48;;
66521;SDS011;53349;53.538;8.584;2022-09-09T00:40:52;23.40;;;11.63;;
66521;SDS011;53349;53.538;8.584;2022-09-09T00:43:40;25.45;;;12.65;;
66521;SDS011;53349;53.538;8.584;2022-09-09T00:51:45;23.60;;;11.27;;
66521;SDS011;53349;53.538;8.584;2022-09-09T00:54:22;23.40;;;11.32;;
66521;SDS011;53349;53.538;8.584;2022-09-09T00:59:52;26.48;;;12.30;;
66521;SDS011;53349;53.538;8.584;2022-09-09T01:05:18;26.42;;;12.93;;
66521;SDS011;53349;53.538;8.584;2022-09-09T01:07:55;26.67;;;12.93;;
66521;SDS011;53349;53.538;8.584;2022-09-09T01:10:36;30.95;;;13.82;;
66521;SDS011;53349;53.538;8.584;2022-09-09T01:13:16;28.15;;;13.52;;
66521;SDS011;53349;53.538;8.584;2022-09-09T01:15:48;26.60;;;13.43;;
66521;SDS011;53349;53.538;8.584;2022-09-09T01:18:18;25.35;;;12.13;;
66521;SDS011;53349;53.538;8.584;2022-09-09T01:23:50;26.65;;;12.50;;
66521;SDS011;53349;53.538;8.584;2022-09-09T01:26:28;28.55;;;13.15;;
66521;SDS011;53349;53.538;8.584;2022-09-09T01:28:58;27.10;;;13.85;;
66521;SDS011;53349;53.538;8.584;2022-09-09T01:31:36;23.30;;;12.73;;
66521;SDS011;53349;53.538;8.584;2022-09-09T01:34:10;27.70;;;13.90;;
66521;SDS011;53349;53.538;8.584;2022-09-09T01:36:47;27.05;;;13.38;;
66521;SDS011;53349;53.538;8.584;2022-09-09T01:39:25;29.70;;;13.57;;
66521;SDS011;53349;53.538;8.584;2022-09-09T01:41:52;26.52;;;14.20;;
66521;SDS011;53349;53.538;8.584;2022-09-09T01:44:20;26.95;;;14.20;;
66521;SDS011;53349;53.538;8.584;2022-09-09T01:46:46;29.77;;;14.75;;
66521;SDS011;53349;53.538;8.584;2022-09-09T01:49:11;27.03;;;13.60;;
66521;SDS011;53349;53.538;8.584;2022-09-09T01:51:38;26.38;;;13.95;;
66521;SDS011;53349;53.538;8.584;2022-09-09T01:54:05;25.50;;;12.95;;
66521;SDS011;53349;53.538;8.584;2022-09-09T02:02:36;25.77;;;12.90;;
66521;SDS011;53349;53.538;8.584;2022-09-09T02:05:11;24.48;;;12.45;;
66521;SDS011;53349;53.538;8.584;2022-09-09T02:07:48;28.08;;;13.00;;
66521;SDS011;53349;53.538;8.584;2022-09-09T02:10:25;26.38;;;13.32;;
66521;SDS011;53349;53.538;8.584;2022-09-09T02:12:58;28.17;;;13.48;;
66521;SDS011;53349;53.538;8.584;2022-09-09T02:15:34;29.90;;;13.40;;
66521;SDS011;53349;53.538;8.584;2022-09-09T02:18:03;26.10;;;12.40;;
66521;SDS011;53349;53.538;8.584;2022-09-09T02:20:36;25.88;;;12.85;;
66521;SDS011;53349;53.538;8.584;2022-09-09T02:23:05;24.70;;;11.93;;
66521;SDS011;53349;53.538;8.584;2022-09-09T02:25:34;23.42;;;12.20;;
66521;SDS011;53349;53.538;8.584;2022-09-09T02:28:02;26.10;;;12.67;;
66521;SDS011;53349;53.538;8.584;2022-09-09T02:30:32;23.80;;;12.00;;
66521;SDS011;53349;53.538;8.584;2022-09-09T02:32:59;23.05;;;11.80;;
66521;SDS011;53349;53.538;8.584;2022-09-09T02:35:29;22.05;;;10.75;;
66521;SDS011;53349;53.538;8.584;2022-09-09T02:38:04;20.95;;;11.40;;
66521;SDS011;53349;53.538;8.584;2022-09-09T02:40:33;21.53;;;11.13;;
66521;SDS011;53349;53.538;8.584;2022-09-09T02:42:58;23.40;;;11.63;;
66521;SDS011;53349;53.538;8.584;2022-09-09T02:45:26;19.08;;;10.82;;
66521;SDS011;53349;53.538;8.584;2022-09-09T02:48:14;20.53;;;10.53;;
66521;SDS011;53349;53.538;8.584;2022-09-09T02:53:39;21.50;;;11.32;;
66521;SDS011;53349;53.538;8.584;2022-09-09T02:56:15;22.00;;;12.07;;
66521;SDS011;53349;53.538;8.584;2022-09-09T02:58:45;19.30;;;10.88;;
66521;SDS011;53349;53.538;8.584;2022-09-09T03:01:11;20.47;;;10.40;;
66521;SDS011;53349;53.538;8.584;2022-09-09T03:03:37;19.70;;;10.45;;
66521;SDS011;53349;53.538;8.584;2022-09-09T03:06:03;19.30;;;10.47;;
66521;SDS011;53349;53.538;8.584;2022-09-09T03:08:30;20.63;;;10.35;;
66521;SDS011;53349;53.538;8.584;2022-09-09T03:10:57;18.90;;;9.80;;
66521;SDS011;53349;53.538;8.584;2022-09-09T03:13:23;21.33;;;10.75;;
66521;SDS011;53349;53.538;8.584;2022-09-09T03:15:50;18.98;;;10.32;;
66521;SDS011;53349;53.538;8.584;2022-09-09T03:18:16;19.50;;;10.13;;
66521;SDS011;53349;53.538;8.584;2022-09-09T03:20:42;19.50;;;10.50;;
66521;SDS011;53349;53.538;8.584;2022-09-09T03:23:07;20.63;;;10.80;;
66521;SDS011;53349;53.538;8.584;2022-09-09T03:25:33;22.03;;;10.50;;
66521;SDS011;53349;53.538;8.584;2022-09-09T03:28:00;21.35;;;11.23;;
66521;SDS011;53349;53.538;8.584;2022-09-09T03:30:26;21.63;;;11.32;;
66521;SDS011;53349;53.538;8.584;2022-09-09T03:32:52;20.67;;;11.25;;
66521;SDS011;53349;53.538;8.584;2022-09-09T03:35:18;21.52;;;10.90;;
66521;SDS011;53349;53.538;8.584;2022-09-09T03:37:44;22.25;;;11.27;;
66521;SDS011;53349;53.538;8.584;2022-09-09T03:40:10;20.73;;;10.60;;
66521;SDS011;53349;53.538;8.584;2022-09-09T03:42:36;23.38;;;10.90;;
66521;SDS011;53349;53.538;8.584;2022-09-09T03:45:03;21.97;;;11.53;;
66521;SDS011;53349;53.538;8.584;2022-09-09T03:47:30;20.90;;;11.23;;
66521;SDS011;53349;53.538;8.584;2022-09-09T03:49:57;20.52;;;10.95;;
66521;SDS011;53349;53.538;8.584;2022-09-09T03:52:22;21.02;;;11.23;;
66521;SDS011;53349;53.538;8.584;2022-09-09T03:54:50;20.38;;;10.43;;
66521;SDS011;53349;53.538;8.584;2022-09-09T03:57:16;25.63;;;11.35;;
66521;SDS011;53349;53.538;8.584;2022-09-09T03:59:42;21.33;;;11.43;;
66521;SDS011;53349;53.538;8.584;2022-09-09T04:02:08;21.67;;;11.03;;
66521;SDS011;53349;53.538;8.584;2022-09-09T04:04:34;21.15;;;11.75;;
66521;SDS011;53349;53.538;8.584;2022-09-09T04:06:59;24.47;;;12.13;;
66521;SDS011;53349;53.538;8.584;2022-09-09T04:09:24;24.00;;;13.17;;
66521;SDS011;53349;53.538;8.584;2022-09-09T04:11:50;24.38;;;12.70;;
66521;SDS011;53349;53.538;8.584;2022-09-09T04:14:15;21.87;;;12.30;;
66521;SDS011;53349;53.538;8.584;2022-09-09T04:16:41;21.60;;;12.17;;
66521;SDS011;53349;53.538;8.584;2022-09-09T04:19:09;23.77;;;12.77;;
66521;SDS011;53349;53.538;8.584;2022-09-09T04:21:37;27.58;;;13.63;;
66521;SDS011;53349;53.538;8.584;2022-09-09T04:24:05;25.33;;;13.27;;
66521;SDS011;53349;53.538;8.584;2022-09-09T04:26:31;23.05;;;12.60;;
66521;SDS011;53349;53.538;8.584;2022-09-09T04:28:57;23.37;;;12.63;;
66521;SDS011;53349;53.538;8.584;2022-09-09T04:31:23;25.27;;;11.68;;
66521;SDS011;53349;53.538;8.584;2022-09-09T04:33:51;24.37;;;12.60;;
66521;SDS011;53349;53.538;8.584;2022-09-09T04:36:17;22.50;;;11.93;;
66521;SDS011;53349;53.538;8.584;2022-09-09T04:38:44;23.50;;;13.02;;
66521;SDS011;53349;53.538;8.584;2022-09-09T04:41:11;23.63;;;12.20;;
66521;SDS011;53349;53.538;8.584;2022-09-09T04:43:37;26.83;;;12.80;;
66521;SDS011;53349;53.538;8.584;2022-09-09T04:46:05;23.73;;;12.85;;
66521;SDS011;53349;53.538;8.584;2022-09-09T04:48:30;23.42;;;11.63;;
66521;SDS011;53349;53.538;8.584;2022-09-09T04:51:06;22.00;;;11.37;;
66521;SDS011;53349;53.538;8.584;2022-09-09T04:53:36;24.75;;;11.90;;
66521;SDS011;53349;53.538;8.584;2022-09-09T04:56:07;24.90;;;10.68;;
66521;SDS011;53349;53.538;8.584;2022-09-09T04:58:37;21.67;;;10.85;;
66521;SDS011;53349;53.538;8.584;2022-09-09T05:01:07;24.40;;;10.82;;
66521;SDS011;53349;53.538;8.584;2022-09-09T05:03:37;20.02;;;10.57;;
66521;SDS011;53349;53.538;8.584;2022-09-09T05:06:04;19.55;;;10.88;;
66521;SDS011;53349;53.538;8.584;2022-09-09T05:08:35;18.05;;;10.57;;
66521;SDS011;53349;53.538;8.584;2022-09-09T05:11:03;18.20;;;10.47;;
66521;SDS011;53349;53.538;8.584;2022-09-09T05:13:36;20.92;;;11.40;;
66521;SDS011;53349;53.538;8.584;2022-09-09T05:16:02;17.97;;;10.20;;
66521;SDS011;53349;53.538;8.584;2022-09-09T05:18:27;17.85;;;10.02;;
66521;SDS011;53349;53.538;8.584;2022-09-09T05:20:56;19.20;;;10.37;;
66521;SDS011;53349;53.538;8.584;2022-09-09T05:23:24;20.02;;;10.32;;
66521;SDS011;53349;53.538;8.584;2022-09-09T05:25:56;21.80;;;10.13;;
66521;SDS011;53349;53.538;8.584;2022-09-09T05:28:23;17.42;;;9.85;;
66521;SDS011;53349;53.538;8.584;2022-09-09T05:31:00;18.75;;;9.63;;
66521;SDS011;53349;53.538;8.584;2022-09-09T05:33:30;18.40;;;9.73;;
66521;SDS011;53349;53.538;8.584;2022-09-09T05:35:57;21.80;;;9.93;;
66521;SDS011;53349;53.538;8.584;2022-09-09T05:38:27;19.25;;;9.77;;
66521;SDS011;53349;53.538;8.584;2022-09-09T05:40:53;18.63;;;9.45;;
66521;SDS011;53349;53.538;8.584;2022-09-09T05:43:21;18.52;;;9.85;;
66521;SDS011;53349;53.538;8.584;2022-09-09T05:45:48;17.63;;;9.53;;
66521;SDS011;53349;53.538;8.584;2022-09-09T05:48:27;18.83;;;9.13;;
66521;SDS011;53349;53.538;8.584;2022-09-09T05:50:55;16.65;;;8.93;;
66521;SDS011;53349;53.538;8.584;2022-09-09T05:53:21;18.30;;;9.27;;
66521;SDS011;53349;53.538;8.584;2022-09-09T05:55:47;16.85;;;9.15;;
66521;SDS011;53349;53.538;8.584;2022-09-09T05:58:13;16.85;;;9.73;;
66521;SDS011;53349;53.538;8.584;2022-09-09T06:00:40;21.33;;;9.90;;
66521;SDS011;53349;53.538;8.584;2022-09-09T06:03:05;17.83;;;9.43;;
66521;SDS011;53349;53.538;8.584;2022-09-09T06:05:31;17.87;;;9.33;;
66521;SDS011;53349;53.538;8.584;2022-09-09T06:07:56;20.43;;;9.90;;
66521;SDS011;53349;53.538;8.584;2022-09-09T06:10:21;16.08;;;8.88;;
66521;SDS011;53349;53.538;8.584;2022-09-09T06:12:47;16.10;;;9.55;;
66521;SDS011;53349;53.538;8.584;2022-09-09T06:15:12;17.77;;;8.73;;
66521;SDS011;53349;53.538;8.584;2022-09-09T06:17:41;16.50;;;9.63;;
66521;SDS011;53349;53.538;8.584;2022-09-09T06:20:06;17.00;;;9.23;;
66521;SDS011;53349;53.538;8.584;2022-09-09T06:22:35;16.33;;;8.98;;
66521;SDS011;53349;53.538;8.584;2022-09-09T06:25:00;14.73;;;8.50;;
66521;SDS011;53349;53.538;8.584;2022-09-09T06:27:27;15.47;;;8.77;;
66521;SDS011;53349;53.538;8.584;2022-09-09T06:29:53;14.43;;;8.30;;
66521;SDS011;53349;53.538;8.584;2022-09-09T06:32:19;14.30;;;7.90;;
66521;SDS011;53349;53.538;8.584;2022-09-09T06:34:44;13.18;;;7.10;;
66521;SDS011;53349;53.538;8.584;2022-09-09T06:37:10;15.67;;;7.67;;
66521;SDS011;53349;53.538;8.584;2022-09-09T06:39:36;15.40;;;6.78;;
66521;SDS011;53349;53.538;8.584;2022-09-09T06:42:01;13.57;;;7.33;;
66521;SDS011;53349;53.538;8.584;2022-09-09T06:44:27;11.73;;;6.83;;
66521;SDS011;53349;53.538;8.584;2022-09-09T06:46:53;14.82;;;6.97;;
66521;SDS011;53349;53.538;8.584;2022-09-09T06:49:18;10.10;;;6.43;;
66521;SDS011;53349;53.538;8.584;2022-09-09T06:51:43;12.67;;;6.47;;
66521;SDS011;53349;53.538;8.584;2022-09-09T06:54:10;11.55;;;6.85;;
66521;SDS011;53349;53.538;8.584;2022-09-09T06:56:37;12.27;;;6.28;;
66521;SDS011;53349;53.538;8.584;2022-09-09T06:59:07;11.13;;;6.13;;
66521;SDS011;53349;53.538;8.584;2022-09-09T07:01:43;10.90;;;5.68;;
66521;SDS011;53349;53.538;8.584;2022-09-09T07:04:16;10.70;;;5.60;;
66521;SDS011;53349;53.538;8.584;2022-09-09T07:06:43;8.67;;;4.83;;
66521;SDS011;53349;53.538;8.584;2022-09-09T07:09:11;10.00;;;5.25;;
66521;SDS011;53349;53.538;8.584;2022-09-09T07:11:39;9.75;;;5.07;;
66521;SDS011;53349;53.538;8.584;2022-09-09T07:14:06;9.98;;;5.35;;
66521;SDS011;53349;53.538;8.584;2022-09-09T07:16:33;9.40;;;4.80;;
66521;SDS011;53349;53.538;8.584;2022-09-09T07:19:02;8.98;;;4.70;;
66521;SDS011;53349;53.538;8.584;2022-09-09T07:21:29;8.23;;;4.40;;
66521;SDS011;53349;53.538;8.584;2022-09-09T07:23:56;9.60;;;4.32;;
66521;SDS011;53349;53.538;8.584;2022-09-09T07:26:23;6.50;;;3.70;;
66521;SDS011;53349;53.538;8.584;2022-09-09T07:28:50;7.43;;;3.93;;
66521;SDS011;53349;53.538;8.584;2022-09-09T07:31:17;7.97;;;3.42;;
66521;SDS011;53349;53.538;8.584;2022-09-09T07:33:47;7.75;;;3.45;;
66521;SDS011;53349;53.538;8.584;2022-09-09T07:36:14;6.97;;;2.87;;
66521;SDS011;53349;53.538;8.584;2022-09-09T07:38:42;4.90;;;2.72;;
66521;SDS011;53349;53.538;8.584;2022-09-09T07:41:21;6.60;;;2.80;;
66521;SDS011;53349;53.538;8.584;2022-09-09T07:43:53;6.05;;;2.83;;
66521;SDS011;53349;53.538;8.584;2022-09-09T07:46:20;6.28;;;2.30;;
66521;SDS011;53349;53.538;8.584;2022-09-09T07:48:51;5.00;;;2.07;;
66521;SDS011;53349;53.538;8.584;2022-09-09T07:51:21;3.72;;;1.60;;
66521;SDS011;53349;53.538;8.584;2022-09-09T07:53:55;8.68;;;1.98;;
66521;SDS011;53349;53.538;8.584;2022-09-09T07:56:27;3.67;;;1.85;;
66521;SDS011;53349;53.538;8.584;2022-09-09T07:58:53;5.45;;;1.83;;
66521;SDS011;53349;53.538;8.584;2022-09-09T08:01:24;4.03;;;1.70;;
66521;SDS011;53349;53.538;8.584;2022-09-09T08:03:53;4.60;;;2.13;;
66521;SDS011;53349;53.538;8.584;2022-09-09T08:06:27;6.30;;;2.53;;
66521;SDS011;53349;53.538;8.584;2022-09-09T08:08:54;5.30;;;2.80;;
66521;SDS011;53349;53.538;8.584;2022-09-09T08:11:20;4.63;;;2.70;;
66521;SDS011;53349;53.538;8.584;2022-09-09T08:13:48;6.97;;;3.17;;
66521;SDS011;53349;53.538;8.584;2022-09-09T08:16:16;7.50;;;4.55;;
66521;SDS011;53349;53.538;8.584;2022-09-09T08:18:46;4.85;;;3.03;;
66521;SDS011;53349;53.538;8.584;2022-09-09T08:21:13;5.35;;;2.70;;
66521;SDS011;53349;53.538;8.584;2022-09-09T08:23:42;8.27;;;3.70;;
66521;SDS011;53349;53.538;8.584;2022-09-09T08:28:36;10.90;;;4.10;;
66521;SDS011;53349;53.538;8.584;2022-09-09T08:31:05;7.75;;;4.07;;
66521;SDS011;53349;53.538;8.584;2022-09-09T08:33:32;7.22;;;3.55;;
66521;SDS011;53349;53.538;8.584;2022-09-09T08:35:59;8.83;;;3.53;;
66521;SDS011;53349;53.538;8.584;2022-09-09T08:38:24;7.40;;;3.20;;
66521;SDS011;53349;53.538;8.584;2022-09-09T08:40:50;5.83;;;2.70;;
66521;SDS011;53349;53.538;8.584;2022-09-09T08:43:26;7.32;;;3.25;;
66521;SDS011;53349;53.538;8.584;2022-09-09T08:51:28;6.60;;;2.80;;
66521;SDS011;53349;53.538;8.584;2022-09-09T08:53:56;8.15;;;3.00;;
66521;SDS011;53349;53.538;8.584;2022-09-09T08:56:25;6.35;;;2.92;;
66521;SDS011;53349;53.538;8.584;2022-09-09T08:58:53;6.50;;;2.80;;
66521;SDS011;53349;53.538;8.584;2022-09-09T09:01:26;5.32;;;2.95;;
66521;SDS011;53349;53.538;8.584;2022-09-09T09:07:04;6.32;;;2.60;;
66521;SDS011;53349;53.538;8.584;2022-09-09T09:09:52;6.95;;;2.58;;
66521;SDS011;53349;53.538;8.584;2022-09-09T09:12:24;5.20;;;2.30;;
66521;SDS011;53349;53.538;8.584;2022-09-09T09:14:54;6.45;;;2.97;;
66521;SDS011;53349;53.538;8.584;2022-09-09T09:17:21;7.38;;;3.10;;
66521;SDS011;53349;53.538;8.584;2022-09-09T09:19:50;5.85;;;3.17;;
66521;SDS011;53349;53.538;8.584;2022-09-09T09:22:22;7.60;;;3.57;;
66521;SDS011;53349;53.538;8.584;2022-09-09T09:27:34;6.10;;;3.80;;
66521;SDS011;53349;53.538;8.584;2022-09-09T09:30:11;5.57;;;3.40;;
66521;SDS011;53349;53.538;8.584;2022-09-09T09:32:42;5.90;;;3.50;;
66521;SDS011;53349;53.538;8.584;2022-09-09T09:35:13;6.40;;;3.70;;
66521;SDS011;53349;53.538;8.584;2022-09-09T09:37:40;6.30;;;3.90;;
66521;SDS011;53349;53.538;8.584;2022-09-09T09:40:11;4.80;;;3.97;;
66521;SDS011;53349;53.538;8.584;2022-09-09T09:42:37;6.35;;;4.82;;
66521;SDS011;53349;53.538;8.584;2022-09-09T09:48:00;7.15;;;5.47;;
66521;SDS011;53349;53.538;8.584;2022-09-09T09:50:28;7.07;;;5.13;;
66521;SDS011;53349;53.538;8.584;2022-09-09T09:52:55;5.63;;;4.80;;
66521;SDS011;53349;53.538;8.584;2022-09-09T09:55:22;5.53;;;3.65;;
66521;SDS011;53349;53.538;8.584;2022-09-09T09:57:49;5.10;;;3.60;;
66521;SDS011;53349;53.538;8.584;2022-09-09T10:00:16;5.53;;;3.58;;
66521;SDS011;53349;53.538;8.584;2022-09-09T10:02:47;4.60;;;2.70;;
66521;SDS011;53349;53.538;8.584;2022-09-09T10:05:25;5.18;;;3.28;;
66521;SDS011;53349;53.538;8.584;2022-09-09T10:08:00;4.85;;;3.60;;
66521;SDS011;53349;53.538;8.584;2022-09-09T10:16:46;5.90;;;3.07;;
66521;SDS011;53349;53.538;8.584;2022-09-09T10:19:35;6.38;;;3.78;;
66521;SDS011;53349;53.538;8.584;2022-09-09T10:22:04;5.50;;;3.30;;
66521;SDS011;53349;53.538;8.584;2022-09-09T10:28:07;5.85;;;3.97;;
66521;SDS011;53349;53.538;8.584;2022-09-09T10:30:55;6.20;;;3.43;;
66521;SDS011;53349;53.538;8.584;2022-09-09T10:36:44;7.72;;;4.22;;
66521;SDS011;53349;53.538;8.584;2022-09-09T10:42:15;6.90;;;4.70;;
66521;SDS011;53349;53.538;8.584;2022-09-09T10:53:35;10.38;;;4.80;;
66521;SDS011;53349;53.538;8.584;2022-09-09T10:56:07;7.72;;;4.30;;
66521;SDS011;53349;53.538;8.584;2022-09-09T10:58:40;5.97;;;3.90;;
66521;SDS011;53349;53.538;8.584;2022-09-09T11:01:41;6.10;;;3.55;;
66521;SDS011;53349;53.538;8.584;2022-09-09T11:04:29;6.95;;;3.40;;
66521;SDS011;53349;53.538;8.584;2022-09-09T11:07:06;5.93;;;3.20;;
66521;SDS011;53349;53.538;8.584;2022-09-09T11:09:47;6.15;;;3.60;;
66521;SDS011;53349;53.538;8.584;2022-09-09T11:12:18;6.03;;;3.90;;
66521;SDS011;53349;53.538;8.584;2022-09-09T11:14:53;5.70;;;3.80;;
66521;SDS011;53349;53.538;8.584;2022-09-09T11:17:33;6.18;;;4.13;;
66521;SDS011;53349;53.538;8.584;2022-09-09T11:20:11;7.93;;;5.32;;
66521;SDS011;53349;53.538;8.584;2022-09-09T11:22:39;7.47;;;6.07;;
66521;SDS011;53349;53.538;8.584;2022-09-09T11:25:15;7.97;;;5.30;;
66521;SDS011;53349;53.538;8.584;2022-09-09T11:38:44;7.93;;;5.07;;
66521;SDS011;53349;53.538;8.584;2022-09-09T11:41:12;6.88;;;5.22;;
66521;SDS011;53349;53.538;8.584;2022-09-09T11:43:41;8.48;;;5.75;;
66521;SDS011;53349;53.538;8.584;2022-09-09T11:46:11;9.07;;;4.28;;
66521;SDS011;53349;53.538;8.584;2022-09-09T11:48:41;6.93;;;4.53;;
66521;SDS011;53349;53.538;8.584;2022-09-09T11:51:11;6.43;;;3.87;;
66521;SDS011;53349;53.538;8.584;2022-09-09T11:53:54;7.68;;;3.85;;
66521;SDS011;53349;53.538;8.584;2022-09-09T11:56:32;6.63;;;3.70;;
66521;SDS011;53349;53.538;8.584;2022-09-09T11:59:19;5.15;;;3.40;;
66521;SDS011;53349;53.538;8.584;2022-09-09T12:01:50;7.57;;;3.80;;
66521;SDS011;53349;53.538;8.584;2022-09-09T12:12:04;6.75;;;3.72;;
66521;SDS011;53349;53.538;8.584;2022-09-09T12:14:37;7.60;;;4.53;;
66521;SDS011;53349;53.538;8.584;2022-09-09T12:19:47;6.38;;;3.90;;
66521;SDS011;53349;53.538;8.584;2022-09-09T12:25:09;6.22;;;3.83;;
66521;SDS011;53349;53.538;8.584;2022-09-09T12:28:03;5.57;;;3.80;;
66521;SDS011;53349;53.538;8.584;2022-09-09T12:33:18;5.93;;;3.70;;
66521;SDS011;53349;53.538;8.584;2022-09-09T12:35:46;7.53;;;4.07;;
66521;SDS011;53349;53.538;8.584;2022-09-09T12:38:22;9.27;;;5.07;;
66521;SDS011;53349;53.538;8.584;2022-09-09T12:40:57;10.98;;;5.68;;
66521;SDS011;53349;53.538;8.584;2022-09-09T12:43:24;9.60;;;6.17;;
66521;SDS011;53349;53.538;8.584;2022-09-09T12:45:52;11.00;;;6.57;;
66521;SDS011;53349;53.538;8.584;2022-09-09T12:48:24;9.05;;;6.40;;
66521;SDS011;53349;53.538;8.584;2022-09-09T12:50:55;7.95;;;5.78;;
66521;SDS011;53349;53.538;8.584;2022-09-09T12:53:54;10.00;;;6.43;;
66521;SDS011;53349;53.538;8.584;2022-09-09T12:56:20;8.23;;;6.30;;
66521;SDS011;53349;53.538;8.584;2022-09-09T12:58:48;10.38;;;5.65;;
66521;SDS011;53349;53.538;8.584;2022-09-09T13:01:32;8.30;;;5.72;;
66521;SDS011;53349;53.538;8.584;2022-09-09T13:03:58;9.52;;;5.43;;
66521;SDS011;53349;53.538;8.584;2022-09-09T13:06:25;14.07;;;5.63;;
66521;SDS011;53349;53.538;8.584;2022-09-09T13:08:53;9.03;;;5.43;;
66521;SDS011;53349;53.538;8.584;2022-09-09T13:11:35;9.15;;;5.07;;
66521;SDS011;53349;53.538;8.584;2022-09-09T13:14:12;8.07;;;5.05;;
66521;SDS011;53349;53.538;8.584;2022-09-09T13:16:53;10.18;;;4.93;;
66521;SDS011;53349;53.538;8.584;2022-09-09T13:19:22;9.27;;;5.10;;
66521;SDS011;53349;53.538;8.584;2022-09-09T13:21:50;11.17;;;4.87;;
66521;SDS011;53349;53.538;8.584;2022-09-09T13:24:33;9.73;;;4.80;;
66521;SDS011;53349;53.538;8.584;2022-09-09T13:27:03;12.25;;;4.60;;
66521;SDS011;53349;53.538;8.584;2022-09-09T13:29:51;11.98;;;4.55;;
66521;SDS011;53349;53.538;8.584;2022-09-09T13:32:21;10.13;;;3.78;;
66521;SDS011;53349;53.538;8.584;2022-09-09T13:34:51;7.00;;;3.43;;
66521;SDS011;53349;53.538;8.584;2022-09-09T13:37:34;4.45;;;2.67;;
66521;SDS011;53349;53.538;8.584;2022-09-09T13:40:02;5.03;;;2.40;;
66521;SDS011;53349;53.538;8.584;2022-09-09T13:42:31;5.18;;;2.10;;
66521;SDS011;53349;53.538;8.584;2022-09-09T13:45:00;5.18;;;2.20;;
66521;SDS011;53349;53.538;8.584;2022-09-09T13:47:30;6.90;;;2.93;;
66521;SDS011;53349;53.538;8.584;2022-09-09T13:50:09;6.93;;;3.13;;
66521;SDS011;53349;53.538;8.584;2022-09-09T13:52:45;8.35;;;3.75;;
66521;SDS011;53349;53.538;8.584;2022-09-09T13:55:12;12.98;;;4.10;;
66521;SDS011;53349;53.538;8.584;2022-09-09T13:57:38;8.37;;;4.00;;
66521;SDS011;53349;53.538;8.584;2022-09-09T14:00:03;12.37;;;4.33;;
66521;SDS011;53349;53.538;8.584;2022-09-09T14:02:30;11.45;;;3.95;;
66521;SDS011;53349;53.538;8.584;2022-09-09T14:04:56;9.87;;;4.23;;
66521;SDS011;53349;53.538;8.584;2022-09-09T14:07:21;10.47;;;4.70;;
66521;SDS011;53349;53.538;8.584;2022-09-09T14:09:47;7.65;;;4.22;;
66521;SDS011;53349;53.538;8.584;2022-09-09T14:12:15;10.10;;;4.17;;
66521;SDS011;53349;53.538;8.584;2022-09-09T14:14:41;8.65;;;4.05;;
66521;SDS011;53349;53.538;8.584;2022-09-09T14:17:09;8.23;;;4.15;;
66521;SDS011;53349;53.538;8.584;2022-09-09T14:19:36;10.82;;;4.80;;
66521;SDS011;53349;53.538;8.584;2022-09-09T14:22:04;7.85;;;4.80;;
66521;SDS011;53349;53.538;8.584;2022-09-09T14:24:30;8.57;;;4.50;;
66521;SDS011;53349;53.538;8.584;2022-09-09T14:26:55;7.87;;;3.80;;
66521;SDS011;53349;53.538;8.584;2022-09-09T14:29:21;6.50;;;3.85;;
66521;SDS011;53349;53.538;8.584;2022-09-09T14:31:46;7.93;;;3.63;;
66521;SDS011;53349;53.538;8.584;2022-09-09T14:34:12;7.20;;;3.37;;
66521;SDS011;53349;53.538;8.584;2022-09-09T14:36:39;6.75;;;3.10;;
66521;SDS011;53349;53.538;8.584;2022-09-09T14:39:06;7.10;;;2.90;;
66521;SDS011;53349;53.538;8.584;2022-09-09T14:41:33;6.65;;;2.97;;
66521;SDS011;53349;53.538;8.584;2022-09-09T14:43:58;6.23;;;3.03;;
66521;SDS011;53349;53.538;8.584;2022-09-09T14:46:24;6.07;;;3.15;;
66521;SDS011;53349;53.538;8.584;2022-09-09T14:48:50;6.03;;;3.13;;
66521;SDS011;53349;53.538;8.584;2022-09-09T14:51:20;5.23;;;2.97;;
66521;SDS011;53349;53.538;8.584;2022-09-09T14:53:47;6.63;;;3.35;;
66521;SDS011;53349;53.538;8.584;2022-09-09T14:56:16;6.80;;;3.33;;
66521;SDS011;53349;53.538;8.584;2022-09-09T14:58:43;6.43;;;3.67;;
66521;SDS011;53349;53.538;8.584;2022-09-09T15:01:13;8.07;;;3.20;;
66521;SDS011;53349;53.538;8.584;2022-09-09T15:03:40;6.72;;;3.50;;
66521;SDS011;53349;53.538;8.584;2022-09-09T15:06:07;7.10;;;3.85;;
66521;SDS011;53349;53.538;8.584;2022-09-09T15:08:36;6.25;;;3.25;;
66521;SDS011;53349;53.538;8.584;2022-09-09T15:11:03;7.53;;;3.67;;
66521;SDS011;53349;53.538;8.584;2022-09-09T15:13:30;9.15;;;3.47;;
66521;SDS011;53349;53.538;8.584;2022-09-09T15:15:55;5.65;;;3.30;;
66521;SDS011;53349;53.538;8.584;2022-09-09T15:18:23;8.43;;;3.58;;
66521;SDS011;53349;53.538;8.584;2022-09-09T15:20:48;6.47;;;3.23;;
66521;SDS011;53349;53.538;8.584;2022-09-09T15:23:13;7.57;;;3.40;;
66521;SDS011;53349;53.538;8.584;2022-09-09T15:25:49;8.32;;;3.67;;
66521;SDS011;53349;53.538;8.584;2022-09-09T15:28:17;5.72;;;3.28;;
66521;SDS011;53349;53.538;8.584;2022-09-09T15:30:42;5.80;;;3.60;;
66521;SDS011;53349;53.538;8.584;2022-09-09T15:33:09;6.05;;;3.85;;
66521;SDS011;53349;53.538;8.584;2022-09-09T15:35:35;6.77;;;3.73;;
66521;SDS011;53349;53.538;8.584;2022-09-09T15:38:04;7.60;;;3.73;;
66521;SDS011;53349;53.538;8.584;2022-09-09T15:40:32;7.72;;;4.10;;
66521;SDS011;53349;53.538;8.584;2022-09-09T15:43:00;6.60;;;3.53;;
66521;SDS011;53349;53.538;8.584;2022-09-09T15:45:27;7.43;;;3.70;;
66521;SDS011;53349;53.538;8.584;2022-09-09T15:47:52;6.57;;;3.97;;
66521;SDS011;53349;53.538;8.584;2022-09-09T15:50:18;7.57;;;3.45;;
66521;SDS011;53349;53.538;8.584;2022-09-09T15:52:43;8.67;;;3.37;;
66521;SDS011;53349;53.538;8.584;2022-09-09T15:55:09;6.97;;;3.45;;
66521;SDS011;53349;53.538;8.584;2022-09-09T15:57:35;5.73;;;3.17;;
66521;SDS011;53349;53.538;8.584;2022-09-09T16:00:02;7.97;;;4.07;;
66521;SDS011;53349;53.538;8.584;2022-09-09T16:02:29;5.68;;;3.28;;
66521;SDS011;53349;53.538;8.584;2022-09-09T16:04:55;5.15;;;3.00;;
66521;SDS011;53349;53.538;8.584;2022-09-09T16:07:22;6.83;;;3.20;;
66521;SDS011;53349;53.538;8.584;2022-09-09T16:09:48;6.63;;;3.42;;
66521;SDS011;53349;53.538;8.584;2022-09-09T16:12:16;6.28;;;3.40;;
66521;SDS011;53349;53.538;8.584;2022-09-09T16:14:42;7.50;;;3.60;;
66521;SDS011;53349;53.538;8.584;2022-09-09T16:17:07;5.32;;;3.13;;
66521;SDS011;53349;53.538;8.584;2022-09-09T16:19:33;8.17;;;3.30;;
66521;SDS011;53349;53.538;8.584;2022-09-09T16:21:59;6.50;;;3.35;;
66521;SDS011;53349;53.538;8.584;2022-09-09T16:24:25;6.60;;;3.67;;
66521;SDS011;53349;53.538;8.584;2022-09-09T16:26:51;6.57;;;3.60;;
66521;SDS011;53349;53.538;8.584;2022-09-09T16:29:19;5.63;;;3.40;;
66521;SDS011;53349;53.538;8.584;2022-09-09T16:31:46;8.60;;;3.57;;
66521;SDS011;53349;53.538;8.584;2022-09-09T16:34:12;6.18;;;3.35;;